Time;durP1;ratioP1;P1;durP2;ratioP2;P2;SDS_P1;SDS_P2;PMS_P1;PMS_P2;Temp;Humidity;BMP_temperature;BMP_pressure;BME280_temperature;BME280_humidity;BME280_pressure;Samples;Min_cycle;Max_cycle;Signal;HPM_P1;HPM_P2
2022/02/21 00:02:01;;;;;;;4.03;0.98;;;9.10;61.40;;;;;;5074631;28;20030;-82
2022/02/21 00:04:26;;;;;;;5.18;1.15;;;9.10;62.30;;;;;;5074793;28;20021;-82
2022/02/21 00:06:52;;;;;;;6.40;1.10;;;9.10;62.10;;;;;;5074768;28;20032;-82
2022/02/21 00:09:17;;;;;;;5.40;1.17;;;9.10;62.00;;;;;;5074497;28;20044;-83
2022/02/21 00:11:43;;;;;;;5.88;1.30;;;9.10;62.00;;;;;;5074688;28;20064;-81
2022/02/21 00:14:11;;;;;;;4.50;1.20;;;9.10;61.90;;;;;;5058136;28;20094;-81
2022/02/21 00:16:36;;;;;;;7.15;1.42;;;9.10;61.40;;;;;;5074584;28;20454;-81
2022/02/21 00:19:02;;;;;;;5.82;1.27;;;9.20;61.20;;;;;;5078226;28;20024;-80
2022/02/21 00:21:29;;;;;;;4.75;0.85;;;9.20;61.20;;;;;;5078426;28;20028;-81
2022/02/21 00:23:55;;;;;;;5.72;1.40;;;9.10;61.60;;;;;;5078289;28;20085;-81
2022/02/21 00:26:21;;;;;;;5.47;1.05;;;9.10;61.50;;;;;;5078161;28;20028;-81
2022/02/21 00:28:48;;;;;;;7.35;1.35;;;9.20;61.40;;;;;;5078387;28;20027;-81
2022/02/21 00:31:15;;;;;;;5.10;1.10;;;9.10;61.20;;;;;;5078029;28;20039;-80
2022/02/21 00:33:41;;;;;;;4.90;1.08;;;9.20;61.10;;;;;;5078224;28;20422;-81
2022/02/21 00:36:06;;;;;;;4.40;0.98;;;9.20;61.20;;;;;;5078062;28;20055;-82
2022/02/21 00:38:32;;;;;;;8.60;1.95;;;9.20;60.90;;;;;;5077685;28;20020;-82
2022/02/21 00:40:58;;;;;;;6.20;1.08;;;9.10;61.10;;;;;;5077444;28;20036;-83
2022/02/21 00:43:24;;;;;;;6.57;1.20;;;9.10;61.00;;;;;;5077957;28;20496;-79
2022/02/21 00:45:49;;;;;;;5.82;0.90;;;9.20;61.00;;;;;;5077918;28;20506;-82
2022/02/21 00:48:15;;;;;;;5.35;1.48;;;9.20;60.50;;;;;;5077842;28;20174;-82
2022/02/21 00:50:41;;;;;;;6.55;1.05;;;9.20;60.40;;;;;;5077723;28;20384;-82
2022/02/21 00:53:06;;;;;;;7.10;1.45;;;9.20;60.60;;;;;;5077833;28;20027;-83
2022/02/21 00:55:35;;;;;;;5.00;0.70;;;9.30;60.70;;;;;;5077858;28;20486;-81
2022/02/21 00:58:04;;;;;;;6.03;1.38;;;9.30;60.10;;;;;;5077594;28;20028;-82
2022/02/21 01:00:30;;;;;;;5.28;1.13;;;9.40;60.20;;;;;;5077667;28;20059;-82
2022/02/21 01:02:56;;;;;;;6.68;1.20;;;9.30;60.60;;;;;;5077574;28;20024;-80
2022/02/21 01:05:22;;;;;;;4.97;1.13;;;9.30;61.00;;;;;;5077598;28;20388;-82
2022/02/21 01:07:48;;;;;;;3.95;1.00;;;9.20;61.20;;;;;;5077587;28;20028;-82
2022/02/21 01:10:14;;;;;;;5.40;1.40;;;9.20;61.70;;;;;;5077320;28;20052;-81
2022/02/21 01:12:39;;;;;;;5.30;0.90;;;9.10;62.00;;;;;;5077565;28;20032;-82
2022/02/21 01:15:06;;;;;;;4.20;0.70;;;9.20;62.20;;;;;;5077250;28;20043;-82
2022/02/21 01:17:34;;;;;;;6.72;0.98;;;9.20;62.70;;;;;;5076670;28;20083;-82
2022/02/21 01:20:03;;;;;;;5.65;1.10;;;9.20;63.30;;;;;;5077220;28;20028;-82
2022/02/21 01:22:29;;;;;;;4.63;0.90;;;9.20;63.40;;;;;;5077603;28;20173;-82
2022/02/21 01:24:55;;;;;;;2.63;0.80;;;9.10;63.70;;;;;;5077754;28;20043;-81
2022/02/21 01:27:20;;;;;;;6.88;1.55;;;9.10;64.20;;;;;;5079212;28;20488;-81
2022/02/21 01:29:46;;;;;;;4.97;1.05;;;9.00;65.50;;;;;;5078497;28;20039;-80
2022/02/21 01:32:12;;;;;;;7.88;1.40;;;9.00;65.60;;;;;;5077065;28;20054;-82
2022/02/21 01:34:38;;;;;;;5.05;0.98;;;8.90;65.80;;;;;;5077007;28;20043;-81
2022/02/21 01:37:05;;;;;;;4.90;1.05;;;8.90;66.20;;;;;;5076879;28;20028;-82
2022/02/21 01:39:30;;;;;;;6.90;1.30;;;8.90;66.50;;;;;;5076943;28;20020;-80
2022/02/21 01:41:56;;;;;;;3.53;0.95;;;9.00;66.30;;;;;;5076910;28;20553;-82
2022/02/21 01:44:43;;;;;;;6.35;1.70;;;8.90;67.00;;;;;;5076833;28;20023;-82
2022/02/21 01:47:11;;;;;;;6.80;1.13;;;8.80;68.40;;;;;;5076613;28;20078;-82
2022/02/21 01:49:38;;;;;;;5.47;1.05;;;8.80;68.50;;;;;;5076537;28;20016;-82
2022/02/21 01:52:05;;;;;;;4.60;1.02;;;8.70;69.30;;;;;;5076606;28;20024;-82
2022/02/21 01:54:32;;;;;;;4.93;0.88;;;8.60;71.00;;;;;;5076688;28;20031;-81
2022/02/21 01:56:58;;;;;;;4.47;1.13;;;8.60;70.90;;;;;;5076410;28;20028;-82
2022/02/21 01:59:26;;;;;;;8.35;1.08;;;8.50;71.10;;;;;;5076450;28;20041;-82
2022/02/21 02:01:53;;;;;;;1.92;0.90;;;8.50;71.90;;;;;;5076360;28;20138;-82
2022/02/21 02:04:19;;;;;;;2.25;0.70;;;8.40;72.70;;;;;;5076491;28;20028;-82
2022/02/21 02:06:47;;;;;;;2.30;0.60;;;8.40;72.40;;;;;;5076540;28;20047;-81
2022/02/21 02:09:12;;;;;;;7.40;1.40;;;8.30;73.20;;;;;;5075983;28;20404;-80
2022/02/21 02:11:39;;;;;;;5.32;0.88;;;8.30;73.00;;;;;;5076333;28;20020;-81
2022/02/21 02:14:05;;;;;;;1.52;0.65;;;8.30;73.60;;;;;;5076270;28;20024;-81
2022/02/21 02:16:30;;;;;;;3.70;0.70;;;8.30;74.00;;;;;;5091000;27;20085;-79
2022/02/21 02:18:56;;;;;;;3.35;0.80;;;8.20;74.70;;;;;;5089403;28;20028;-80
2022/02/21 02:21:26;;;;;;;4.75;0.80;;;8.20;74.10;;;;;;5077407;28;20028;-82
2022/02/21 02:23:53;;;;;;;3.00;0.73;;;8.20;74.50;;;;;;5076059;28;20016;-80
2022/02/21 02:26:20;;;;;;;2.85;0.47;;;8.20;74.20;;;;;;5075885;28;20533;-81
2022/02/21 02:28:46;;;;;;;1.45;0.52;;;8.10;74.70;;;;;;5075872;28;20024;-81
2022/02/21 02:31:12;;;;;;;2.58;0.60;;;8.10;74.80;;;;;;5075914;28;20082;-82
2022/02/21 02:33:38;;;;;;;1.58;0.50;;;8.10;74.40;;;;;;5075545;28;20481;-81
2022/02/21 02:36:06;;;;;;;3.90;0.55;;;8.10;74.50;;;;;;5075497;28;20035;-81
2022/02/21 02:38:35;;;;;;;2.10;0.60;;;8.20;74.80;;;;;;5075837;28;20036;-82
2022/02/21 02:41:01;;;;;;;2.42;0.55;;;8.20;72.90;;;;;;5074865;28;20169;-81
2022/02/21 02:43:27;;;;;;;2.15;0.30;;;8.20;73.60;;;;;;5075655;28;20034;-83
2022/02/21 02:45:52;;;;;;;2.70;0.43;;;8.30;72.40;;;;;;5075838;28;20103;-82
2022/02/21 02:48:18;;;;;;;2.75;0.55;;;8.30;73.60;;;;;;5075774;28;20047;-82
2022/02/21 02:50:46;;;;;;;1.00;0.60;;;8.30;72.70;;;;;;5075879;28;20087;-81
2022/02/21 02:53:11;;;;;;;2.70;0.60;;;8.30;73.10;;;;;;5075894;28;20024;-83
2022/02/21 02:55:37;;;;;;;1.90;0.70;;;8.30;73.40;;;;;;5075471;28;20464;-83
2022/02/21 02:58:03;;;;;;;1.88;0.60;;;8.20;72.90;;;;;;5075346;28;20040;-83
2022/02/21 03:00:28;;;;;;;3.75;0.82;;;8.30;72.70;;;;;;5093672;28;20531;-83
2022/02/21 03:02:54;;;;;;;1.05;0.30;;;8.20;72.60;;;;;;5075401;28;20034;-82
2022/02/21 03:05:20;;;;;;;1.42;0.35;;;8.30;72.90;;;;;;5075314;28;20072;-82
2022/02/21 03:07:46;;;;;;;4.43;0.50;;;8.20;72.90;;;;;;5075383;28;20023;-82
2022/02/21 03:10:12;;;;;;;0.77;0.25;;;8.20;72.70;;;;;;5071777;28;20052;-82
2022/02/21 03:12:37;;;;;;;2.72;0.38;;;8.30;72.30;;;;;;5072019;28;20032;-81
2022/02/21 03:15:03;;;;;;;2.17;0.32;;;8.30;72.40;;;;;;5071808;28;20066;-82
2022/02/21 03:17:28;;;;;;;1.45;0.30;;;8.30;72.50;;;;;;5071766;28;20490;-82
2022/02/21 03:19:54;;;;;;;1.65;0.40;;;8.30;72.50;;;;;;5071852;28;20476;-81
2022/02/21 03:22:19;;;;;;;0.77;0.22;;;8.20;72.70;;;;;;5071760;28;20036;-82
2022/02/21 03:24:45;;;;;;;1.38;0.35;;;8.20;72.40;;;;;;5071947;28;20095;-82
2022/02/21 03:27:11;;;;;;;0.95;0.30;;;8.30;72.20;;;;;;5071673;28;20025;-81
2022/02/21 03:29:36;;;;;;;2.05;0.20;;;8.30;72.10;;;;;;5071736;28;20021;-81
2022/02/21 03:32:02;;;;;;;1.92;0.20;;;8.30;72.20;;;;;;5071736;28;20396;-81
2022/02/21 03:34:29;;;;;;;0.82;0.30;;;8.30;72.20;;;;;;5072040;28;20067;-81
2022/02/21 03:36:55;;;;;;;0.60;0.30;;;8.30;71.80;;;;;;5071874;28;20039;-81
2022/02/21 03:39:20;;;;;;;2.20;0.40;;;8.40;71.30;;;;;;5071770;28;20423;-81
2022/02/21 03:41:46;;;;;;;0.90;0.20;;;8.40;71.90;;;;;;5071599;28;20074;-80
2022/02/21 03:44:11;;;;;;;2.28;0.38;;;8.40;71.70;;;;;;5071512;28;20059;-81
2022/02/21 03:46:41;;;;;;;1.27;0.30;;;8.40;71.60;;;;;;5054811;28;20100;-81
2022/02/21 03:49:08;;;;;;;0.90;0.10;;;8.50;71.00;;;;;;5072774;28;20090;-79
2022/02/21 03:51:34;;;;;;;0.65;0.20;;;8.50;71.10;;;;;;5073094;28;20032;-81
2022/02/21 03:53:59;;;;;;;0.30;0.20;;;8.50;70.40;;;;;;5075494;28;20100;-80
2022/02/21 03:56:25;;;;;;;0.20;0.20;;;8.70;70.10;;;;;;5075320;28;20032;-79
2022/02/21 03:58:50;;;;;;;0.80;0.30;;;8.70;70.40;;;;;;5075473;28;20028;-81
2022/02/21 04:01:16;;;;;;;1.13;0.15;;;8.60;70.70;;;;;;5075225;28;20025;-80
2022/02/21 04:03:42;;;;;;;1.10;0.20;;;8.70;70.50;;;;;;5075443;28;20024;-80
2022/02/21 04:06:08;;;;;;;0.17;0.10;;;8.70;71.20;;;;;;5075278;28;20028;-79
2022/02/21 04:08:33;;;;;;;0.50;0.20;;;8.60;71.60;;;;;;5075186;28;20033;-79
2022/02/21 04:10:59;;;;;;;1.10;0.20;;;8.50;71.90;;;;;;5075218;28;20024;-80
2022/02/21 04:13:24;;;;;;;0.70;0.20;;;8.60;71.90;;;;;;5075178;28;20103;-81
2022/02/21 04:15:50;;;;;;;0.10;0.10;;;8.50;72.30;;;;;;5074950;28;20035;-79
2022/02/21 04:18:16;;;;;;;0.47;0.20;;;8.50;73.30;;;;;;5074984;28;20024;-81
2022/02/21 04:20:41;;;;;;;1.05;0.20;;;8.50;74.00;;;;;;5075249;28;20063;-79
2022/02/21 04:23:07;;;;;;;0.25;0.20;;;8.50;74.50;;;;;;5075171;28;20090;-79
2022/02/21 04:25:33;;;;;;;2.50;0.28;;;8.50;74.10;;;;;;5075989;28;20021;-81
2022/02/21 04:27:58;;;;;;;1.80;0.08;;;8.40;74.80;;;;;;5100017;28;20036;-78
2022/02/21 04:30:26;;;;;;;0.60;0.20;;;6.40;71.80;;;;;;5078884;28;20024;-80
2022/02/21 04:32:52;;;;;;;1.30;0.00;;;5.30;76.40;;;;;;5075406;28;20024;-80
2022/02/21 04:35:19;;;;;;;0.28;0.08;;;4.30;79.40;;;;;;5074830;28;20036;-80
2022/02/21 04:37:45;;;;;;;0.10;0.10;;;3.70;82.50;;;;;;5074732;28;20123;-81
2022/02/21 04:40:14;;;;;;;0.00;0.00;;;3.40;84.30;;;;;;5074565;28;20048;-80
2022/02/21 04:42:42;;;;;;;0.05;0.00;;;3.10;85.90;;;;;;5074500;28;20024;-81
2022/02/21 04:45:08;;;;;;;0.65;0.30;;;3.10;86.50;;;;;;5074325;28;20021;-82
2022/02/21 04:47:34;;;;;;;0.65;0.10;;;3.00;87.20;;;;;;5074404;28;20068;-81
2022/02/21 04:49:59;;;;;;;1.35;0.30;;;3.00;86.90;;;;;;5074513;28;20052;-81
2022/02/21 04:52:25;;;;;;;0.80;0.20;;;3.00;86.80;;;;;;5074248;28;20028;-81
2022/02/21 04:54:51;;;;;;;1.67;0.10;;;2.90;87.20;;;;;;5074335;28;20025;-81
2022/02/21 04:57:16;;;;;;;2.42;0.47;;;2.80;86.80;;;;;;5074204;28;20083;-80
2022/02/21 04:59:42;;;;;;;1.75;0.85;;;2.80;86.80;;;;;;5074337;28;20380;-82
2022/02/21 05:02:07;;;;;;;4.25;0.80;;;2.70;86.90;;;;;;5073857;28;20024;-81
2022/02/21 05:04:33;;;;;;;3.95;0.70;;;2.60;87.30;;;;;;5073503;28;20021;-81
2022/02/21 05:06:59;;;;;;;1.58;0.40;;;2.50;87.80;;;;;;5057363;28;20082;-79
2022/02/21 05:09:24;;;;;;;0.77;0.40;;;2.40;88.50;;;;;;5073919;28;20044;-81
2022/02/21 05:11:50;;;;;;;1.10;0.40;;;2.40;88.60;;;;;;5073499;28;20040;-82
2022/02/21 05:14:16;;;;;;;2.08;0.45;;;2.30;88.60;;;;;;5074106;28;20020;-80
2022/02/21 05:16:41;;;;;;;5.75;0.65;;;2.40;88.50;;;;;;5074032;28;20562;-82
2022/02/21 05:19:07;;;;;;;4.78;0.50;;;2.30;86.90;;;;;;5074112;28;20081;-82
2022/02/21 05:21:32;;;;;;;2.40;0.40;;;2.30;87.10;;;;;;5075058;28;20042;-82
2022/02/21 05:23:59;;;;;;;2.08;0.85;;;2.20;87.10;;;;;;5086826;28;20042;-81
2022/02/21 05:26:25;;;;;;;3.88;0.93;;;2.30;86.90;;;;;;5083056;28;20024;-82
2022/02/21 05:28:52;;;;;;;5.80;0.90;;;2.30;85.60;;;;;;5077338;28;20052;-81
2022/02/21 05:31:18;;;;;;;8.30;1.35;;;2.40;85.00;;;;;;5073768;28;20021;-82
2022/02/21 05:33:43;;;;;;;6.10;1.05;;;2.50;83.90;;;;;;5072787;28;20397;-82
2022/02/21 05:36:09;;;;;;;3.33;0.95;;;2.60;83.00;;;;;;5073553;28;20025;-81
2022/02/21 05:38:35;;;;;;;4.95;0.52;;;2.60;83.70;;;;;;5073832;28;20119;-81
2022/02/21 05:41:00;;;;;;;6.45;1.73;;;2.50;85.00;;;;;;5073974;28;20025;-81
2022/02/21 05:43:26;;;;;;;4.82;0.90;;;2.30;86.10;;;;;;5073980;28;20028;-82
2022/02/21 05:45:51;;;;;;;2.88;0.75;;;2.30;86.20;;;;;;5074415;28;20074;-81
2022/02/21 05:48:17;;;;;;;5.65;1.02;;;2.30;86.10;;;;;;5074041;28;20069;-81
2022/02/21 05:50:42;;;;;;;5.63;1.95;;;2.40;85.10;;;;;;5073707;28;20047;-81
2022/02/21 05:53:08;;;;;;;4.95;1.73;;;2.60;83.50;;;;;;5073094;28;20020;-81
2022/02/21 05:55:33;;;;;;;4.80;1.17;;;2.60;81.80;;;;;;5073280;28;20025;-81
2022/02/21 05:58:00;;;;;;;7.75;1.10;;;2.60;82.60;;;;;;5073069;28;20032;-81
2022/02/21 06:00:26;;;;;;;5.20;1.30;;;2.60;82.50;;;;;;5073216;28;20032;-82
2022/02/21 06:02:52;;;;;;;2.55;1.05;;;2.60;83.20;;;;;;5073421;28;20430;-83
2022/02/21 06:05:18;;;;;;;5.45;1.08;;;2.60;82.50;;;;;;5072989;28;20373;-82
2022/02/21 06:07:44;;;;;;;4.05;0.88;;;2.70;82.30;;;;;;5089943;28;20043;-82
2022/02/21 06:10:10;;;;;;;7.03;1.10;;;2.60;82.30;;;;;;5072670;28;20458;-82
2022/02/21 06:12:35;;;;;;;5.15;1.30;;;2.70;82.40;;;;;;5072844;28;20029;-82
2022/02/21 06:15:04;;;;;;;5.35;1.42;;;2.70;82.10;;;;;;5072919;28;20377;-82
2022/02/21 06:17:30;;;;;;;4.45;1.00;;;2.70;81.90;;;;;;5040283;28;20040;-82
2022/02/21 06:19:55;;;;;;;4.70;1.55;;;2.70;82.00;;;;;;5077795;28;20286;-80
2022/02/21 06:22:21;;;;;;;9.73;1.98;;;2.80;81.60;;;;;;5056191;28;20028;-82
2022/02/21 06:24:48;;;;;;;8.32;1.25;;;2.90;80.90;;;;;;5072583;28;20427;-82
2022/02/21 06:27:14;;;;;;;5.35;0.82;;;2.90;81.10;;;;;;5055671;28;20443;-80
2022/02/21 06:29:40;;;;;;;6.80;1.40;;;2.90;80.50;;;;;;5073235;28;20020;-81
2022/02/21 06:32:06;;;;;;;8.23;1.20;;;3.20;82.70;;;;;;5072448;28;20036;-89
2022/02/21 06:34:32;;;;;;;6.63;1.38;;;3.50;81.60;;;;;;5074584;28;20027;-87
2022/02/21 06:36:59;;;;;;;8.65;1.65;;;3.90;82.20;;;;;;5072186;28;20119;-82
2022/02/21 06:39:25;;;;;;;5.57;1.40;;;4.40;80.30;;;;;;5084480;28;20020;-81
2022/02/21 06:41:51;;;;;;;4.30;0.90;;;4.70;76.00;;;;;;5090899;28;20055;-82
2022/02/21 06:44:17;;;;;;;5.65;1.00;;;4.60;74.90;;;;;;5078441;28;20119;-86
2022/02/21 06:46:44;;;;;;;8.75;1.70;;;4.90;75.00;;;;;;5056748;28;20040;-83
2022/02/21 06:49:10;;;;;;;4.32;1.20;;;5.00;73.00;;;;;;5071994;28;20035;-84
2022/02/21 06:51:37;;;;;;;6.60;1.40;;;4.80;73.80;;;;;;5072320;28;20054;-84
2022/02/21 06:54:07;;;;;;;7.75;1.63;;;4.80;73.70;;;;;;5072352;28;20063;-83
2022/02/21 06:56:34;;;;;;;7.75;1.55;;;4.90;73.20;;;;;;5073236;28;20366;-87
2022/02/21 06:59:00;;;;;;;6.97;1.40;;;4.70;73.10;;;;;;5071898;28;20024;-81
2022/02/21 07:01:26;;;;;;;10.40;1.90;;;4.50;73.50;;;;;;5071955;28;20127;-82
2022/02/21 07:03:54;;;;;;;7.72;1.58;;;4.20;74.20;;;;;;5071998;28;20025;-82
2022/02/21 07:06:20;;;;;;;11.40;3.10;;;4.00;75.30;;;;;;5072279;28;20051;-80
2022/02/21 07:08:45;;;;;;;9.02;2.25;;;3.90;75.40;;;;;;5071884;28;20046;-83
2022/02/21 07:11:11;;;;;;;13.05;3.20;;;3.70;76.40;;;;;;5071759;28;20032;-79
2022/02/21 07:13:37;;;;;;;5.40;1.65;;;3.70;76.30;;;;;;5071582;28;20028;-81
2022/02/21 07:16:03;;;;;;;9.93;2.53;;;3.60;76.80;;;;;;5071393;28;20487;-80
2022/02/21 07:18:29;;;;;;;14.55;1.92;;;3.40;77.60;;;;;;5071981;28;20106;-81
2022/02/21 07:20:54;;;;;;;15.45;2.30;;;3.50;77.50;;;;;;5070303;28;20028;-79
2022/02/21 07:23:20;;;;;;;11.25;2.03;;;3.60;77.60;;;;;;5051720;28;20028;-82
2022/02/21 07:25:46;;;;;;;14.32;3.78;;;3.50;78.20;;;;;;5050793;28;20061;-78
2022/02/21 07:28:15;;;;;;;7.05;1.48;;;3.40;78.60;;;;;;5051136;28;20053;-83
2022/02/21 07:30:41;;;;;;;16.58;2.42;;;3.40;78.60;;;;;;5051083;28;20021;-81
2022/02/21 07:33:06;;;;;;;6.43;2.15;;;3.30;78.40;;;;;;5051037;28;20043;-81
2022/02/21 07:35:32;;;;;;;10.80;2.22;;;3.20;78.80;;;;;;5051385;28;20021;-81
2022/02/21 07:37:57;;;;;;;10.82;2.17;;;3.20;78.10;;;;;;5051284;28;20041;-83
2022/02/21 07:40:23;;;;;;;8.02;1.48;;;3.20;77.40;;;;;;5050920;28;20366;-82
2022/02/21 07:42:52;;;;;;;11.35;1.77;;;3.30;77.60;;;;;;5050839;28;20107;-81
2022/02/21 07:45:19;;;;;;;8.93;1.92;;;3.30;76.90;;;;;;5051052;28;20424;-79
2022/02/21 07:47:46;;;;;;;10.23;2.33;;;3.30;76.00;;;;;;5051336;28;20079;-83
2022/02/21 07:50:13;;;;;;;13.32;2.22;;;3.30;75.70;;;;;;5052217;28;20028;-83
2022/02/21 07:52:39;;;;;;;9.90;2.20;;;3.40;74.70;;;;;;5050806;28;20063;-81
2022/02/21 07:55:05;;;;;;;9.52;2.22;;;3.50;74.80;;;;;;5051124;28;20056;-82
2022/02/21 07:57:31;;;;;;;15.13;2.17;;;3.50;75.10;;;;;;5050133;28;20508;-79
2022/02/21 07:59:57;;;;;;;11.18;2.53;;;3.40;74.60;;;;;;5054737;28;20056;-81
2022/02/21 08:02:24;;;;;;;10.25;1.63;;;3.50;74.30;;;;;;5071002;28;20029;-74
2022/02/21 08:04:49;;;;;;;11.85;2.08;;;3.50;73.40;;;;;;5070477;28;20103;-82
2022/02/21 08:07:15;;;;;;;13.52;2.15;;;3.70;73.50;;;;;;5070965;28;20064;-82
2022/02/21 08:09:41;;;;;;;16.75;3.40;;;3.80;73.60;;;;;;5070621;28;20447;-82
2022/02/21 08:12:08;;;;;;;11.20;1.77;;;3.80;73.20;;;;;;5070799;28;20028;-80
2022/02/21 08:14:35;;;;;;;10.90;1.83;;;3.90;72.60;;;;;;5070963;28;20048;-80
2022/02/21 08:17:01;;;;;;;11.57;2.60;;;3.80;73.60;;;;;;5070747;28;20124;-81
2022/02/21 08:19:27;;;;;;;15.45;2.13;;;3.80;73.50;;;;;;5087436;28;20047;-83
2022/02/21 08:21:53;;;;;;;12.20;2.15;;;3.90;73.00;;;;;;5070736;28;20024;-81
2022/02/21 08:24:22;;;;;;;8.80;1.50;;;3.90;72.80;;;;;;5070754;28;20448;-81
2022/02/21 08:26:47;;;;;;;10.98;2.30;;;4.10;72.70;;;;;;5071586;28;20040;-81
2022/02/21 08:29:13;;;;;;;14.70;2.40;;;4.10;72.30;;;;;;5070363;28;20469;-81
2022/02/21 08:31:39;;;;;;;15.25;3.38;;;4.20;71.30;;;;;;5070170;28;20075;-82
2022/02/21 08:34:04;;;;;;;19.15;2.63;;;4.30;71.00;;;;;;5070375;28;20032;-81
2022/02/21 08:36:30;;;;;;;16.88;2.53;;;4.20;70.20;;;;;;5070755;28;20025;-82
2022/02/21 08:38:55;;;;;;;11.20;2.10;;;4.30;71.00;;;;;;5072685;28;20028;-82
2022/02/21 08:41:23;;;;;;;11.38;2.42;;;4.20;71.20;;;;;;5074457;28;20059;-81
2022/02/21 08:43:48;;;;;;;19.58;3.20;;;4.30;68.90;;;;;;5074405;28;20094;-75
2022/02/21 08:46:14;;;;;;;14.30;2.28;;;4.40;69.20;;;;;;5074135;28;20024;-79
2022/02/21 08:48:40;;;;;;;18.90;2.53;;;4.50;69.70;;;;;;5074405;28;20370;-81
2022/02/21 08:51:07;;;;;;;14.10;2.25;;;4.50;69.20;;;;;;5074131;28;20032;-82
2022/02/21 08:53:33;;;;;;;15.90;2.30;;;4.70;69.40;;;;;;5074337;28;20503;-80
2022/02/21 08:55:59;;;;;;;16.10;3.13;;;4.80;67.70;;;;;;5074034;28;20028;-81
2022/02/21 08:58:24;;;;;;;17.60;3.47;;;4.80;67.90;;;;;;5074208;28;20028;-80
2022/02/21 09:00:50;;;;;;;16.73;2.50;;;4.70;68.40;;;;;;5074106;28;20024;-79
2022/02/21 09:03:16;;;;;;;18.77;2.75;;;4.80;67.80;;;;;;5074023;28;20020;-80
2022/02/21 09:05:41;;;;;;;15.90;2.72;;;4.80;67.60;;;;;;5073825;28;20373;-81
2022/02/21 09:08:07;;;;;;;19.38;3.20;;;4.70;68.20;;;;;;5074214;28;20103;-81
2022/02/21 09:10:33;;;;;;;13.20;2.08;;;4.70;68.60;;;;;;5077065;28;20096;-80
2022/02/21 09:13:00;;;;;;;16.02;3.17;;;4.70;68.30;;;;;;5095076;28;20024;-81
2022/02/21 09:15:26;;;;;;;16.10;2.78;;;4.70;68.10;;;;;;5077194;28;20109;-81
2022/02/21 09:17:52;;;;;;;14.57;2.40;;;4.70;68.50;;;;;;5076847;28;20055;-80
2022/02/21 09:20:18;;;;;;;22.85;4.00;;;4.50;68.40;;;;;;5076920;28;20024;-81
2022/02/21 09:22:44;;;;;;;16.92;3.25;;;4.40;68.30;;;;;;5077040;28;20020;-81
2022/02/21 09:25:10;;;;;;;16.25;2.85;;;4.60;69.40;;;;;;5076741;28;20091;-80
2022/02/21 09:27:37;;;;;;;20.98;2.85;;;4.70;68.50;;;;;;5093779;28;20426;-80
2022/02/21 09:30:04;;;;;;;15.65;2.60;;;4.80;68.40;;;;;;5076603;28;20027;-81
2022/02/21 09:32:30;;;;;;;18.55;2.25;;;4.70;66.30;;;;;;5076665;28;20020;-81
2022/02/21 09:34:56;;;;;;;13.90;3.03;;;4.70;66.30;;;;;;5094579;28;20016;-82
2022/02/21 09:37:25;;;;;;;13.48;2.88;;;4.80;67.70;;;;;;5093423;28;20365;-82
2022/02/21 09:39:51;;;;;;;15.45;2.72;;;4.90;66.80;;;;;;5076519;28;20024;-82
2022/02/21 09:42:17;;;;;;;11.05;2.40;;;4.90;66.90;;;;;;5059777;28;20036;-82
2022/02/21 09:44:46;;;;;;;20.25;3.60;;;4.90;66.70;;;;;;5093632;28;20027;-82
2022/02/21 09:47:15;;;;;;;14.77;2.35;;;4.80;66.70;;;;;;5093561;28;20035;-81
2022/02/21 09:49:41;;;;;;;12.43;2.60;;;4.60;67.30;;;;;;5076016;28;20024;-82
2022/02/21 09:52:07;;;;;;;13.73;2.65;;;4.70;67.90;;;;;;5092988;28;20035;-79
2022/02/21 09:54:32;;;;;;;13.32;2.83;;;5.00;67.60;;;;;;5076407;28;20016;-82
2022/02/21 09:56:58;;;;;;;8.98;2.25;;;5.30;65.60;;;;;;5092922;28;20399;-81
2022/02/21 09:59:24;;;;;;;13.05;2.88;;;5.60;64.10;;;;;;5094411;28;20035;-81
2022/02/21 10:01:50;;;;;;;13.77;2.17;;;5.90;63.80;;;;;;5092649;28;20418;-81
2022/02/21 10:04:26;;;;;;;9.80;2.17;;;6.10;62.90;;;;;;5092712;28;20024;-81
2022/02/21 10:06:52;;;;;;;13.07;2.88;;;6.20;60.80;;;;;;5076292;28;20028;-81
2022/02/21 10:09:18;;;;;;;17.35;2.78;;;6.40;60.30;;;;;;5075767;28;20040;-81
2022/02/21 10:11:46;;;;;;;15.63;3.00;;;6.40;60.90;;;;;;5092853;28;20024;-82
2022/02/21 10:14:19;;;;;;;13.68;2.22;;;6.60;60.70;;;;;;5076197;28;20361;-77
2022/02/21 10:16:54;;;;;;;10.80;2.58;;;6.50;60.10;;;;;;5092851;28;20119;-81
2022/02/21 10:19:28;;;;;;;9.82;2.40;;;6.50;60.30;;;;;;5092961;28;20062;-82
2022/02/21 10:22:07;;;;;;;12.82;2.75;;;6.30;60.20;;;;;;5092580;28;20030;-81
2022/02/21 10:24:59;;;;;;;11.25;2.88;;;6.30;61.10;;;;;;5075506;28;20027;-80
2022/02/21 10:27:29;;;;;;;10.80;2.20;;;6.30;61.30;;;;;;5088939;28;20032;-82
2022/02/21 10:30:00;;;;;;;12.40;2.30;;;6.00;61.60;;;;;;5092416;28;20059;-81
2022/02/21 10:32:31;;;;;;;13.32;2.65;;;6.00;63.40;;;;;;5075167;28;20506;-80
2022/02/21 10:35:35;;;;;;;11.40;1.95;;;6.00;63.20;;;;;;5075247;28;20507;-78
2022/02/21 10:38:04;;;;;;;15.32;2.55;;;6.10;62.80;;;;;;5071000;28;20086;-80
2022/02/21 10:40:38;;;;;;;14.38;3.17;;;6.10;63.20;;;;;;5092185;28;20047;-81
2022/02/21 10:43:14;;;;;;;9.95;1.85;;;6.00;63.20;;;;;;5091932;28;20048;-79
2022/02/21 10:45:42;;;;;;;16.45;2.70;;;5.90;63.70;;;;;;5075143;28;20043;-80
2022/02/21 10:48:14;;;;;;;20.80;2.92;;;5.60;65.00;;;;;;5074983;28;20027;-78
2022/02/21 10:51:00;;;;;;;11.38;2.50;;;5.40;65.80;;;;;;5075252;28;20032;-79
2022/02/21 10:53:40;;;;;;;;;;;5.30;67.30;;;;;;5075533;28;20020;-81
2022/02/21 10:56:06;;;;;;;17.85;3.30;;;5.50;68.00;;;;;;5074763;28;19947;-80
2022/02/21 10:58:32;;;;;;;13.85;2.30;;;5.50;66.10;;;;;;5075093;28;20116;-80
2022/02/21 11:00:58;;;;;;;16.63;2.55;;;5.70;64.10;;;;;;5091117;28;20086;-82
2022/02/21 11:03:26;;;;;;;17.00;3.08;;;5.60;65.10;;;;;;5091620;28;20028;-83
2022/02/21 11:05:55;;;;;;;20.27;2.45;;;5.80;63.90;;;;;;5074395;28;20024;-81
2022/02/21 11:08:21;;;;;;;13.68;2.47;;;5.80;64.20;;;;;;5075593;28;20024;-82
2022/02/21 11:10:55;;;;;;;14.07;2.50;;;5.80;63.70;;;;;;5077148;28;20028;-74
2022/02/21 11:13:32;;;;;;;15.80;2.95;;;5.90;64.50;;;;;;5095216;28;20081;-84
2022/02/21 11:15:58;;;;;;;14.52;2.70;;;5.80;63.70;;;;;;5076384;28;20081;-82
2022/02/21 11:18:24;;;;;;;15.30;2.53;;;5.90;64.90;;;;;;5092921;28;20032;-83
2022/02/21 11:20:50;;;;;;;8.73;2.45;;;6.20;62.80;;;;;;5093150;28;20496;-84
2022/02/21 11:23:16;;;;;;;11.23;2.45;;;6.60;62.10;;;;;;5093831;28;20051;-82
2022/02/21 11:25:54;;;;;;;15.55;3.50;;;6.70;59.80;;;;;;5093191;28;20024;-80
2022/02/21 11:28:33;;;;;;;13.40;2.08;;;6.90;58.50;;;;;;5078000;28;20036;-87
2022/02/21 11:31:02;;;;;;;5.22;1.67;;;7.10;56.90;;;;;;5077910;28;20507;-82
2022/02/21 11:33:28;;;;;;;17.30;3.15;;;7.50;55.30;;;;;;5093390;28;20476;-83
2022/02/21 11:36:08;;;;;;;16.27;2.20;;;8.00;51.50;;;;;;5092314;28;20031;-86
2022/02/21 11:38:35;;;;;;;10.07;2.25;;;8.20;51.50;;;;;;5075731;28;20120;-83
2022/02/21 11:41:05;;;;;;;11.93;2.10;;;7.70;50.60;;;;;;5094184;28;20107;-81
2022/02/21 11:43:36;;;;;;;8.82;1.80;;;7.50;49.60;;;;;;5074660;28;20024;-80
2022/02/21 11:46:11;;;;;;;18.02;2.90;;;7.20;51.50;;;;;;5074667;28;20020;-81
2022/02/21 11:48:56;;;;;;;7.10;1.87;;;7.20;53.10;;;;;;5076352;28;20436;-83
2022/02/21 11:51:34;;;;;;;14.77;2.15;;;7.10;55.50;;;;;;5092237;28;20268;-82
2022/02/21 11:54:12;;;;;;;12.77;1.92;;;6.90;56.80;;;;;;5092720;28;20115;-80
2022/02/21 11:56:49;;;;;;;8.55;1.67;;;6.20;61.10;;;;;;5092607;28;20177;-79
2022/02/21 11:59:28;;;;;;;16.45;2.80;;;6.00;65.20;;;;;;5093302;28;20020;-82
2022/02/21 12:02:10;;;;;;;14.05;2.50;;;6.40;64.90;;;;;;5092898;28;20065;-81
2022/02/21 12:04:59;;;;;;;8.15;2.03;;;6.90;61.80;;;;;;5092719;28;20472;-82
2022/02/21 12:07:31;;;;;;;12.13;1.92;;;7.50;58.00;;;;;;5082669;28;20028;-82
2022/02/21 12:10:21;;;;;;;11.15;1.98;;;7.60;53.60;;;;;;5070943;28;20504;-78
2022/02/21 12:12:58;;;;;;;14.25;3.10;;;7.70;54.10;;;;;;5074072;28;20062;-80
2022/02/21 12:15:35;;;;;;;11.57;2.20;;;7.90;54.00;;;;;;5073999;28;20028;-80
2022/02/21 12:18:30;;;;;;;8.70;1.42;;;8.20;51.20;;;;;;5074461;28;20041;-79
2022/02/21 12:21:21;;;;;;;10.23;2.13;;;8.50;50.60;;;;;;5038213;28;20029;-78
2022/02/21 12:23:54;;;;;;;12.73;2.30;;;8.90;48.50;;;;;;5074566;28;20028;-80
2022/02/21 12:26:26;;;;;;;10.38;2.05;;;8.60;49.10;;;;;;5091240;28;20531;-80
2022/02/21 12:29:08;;;;;;;9.88;3.47;;;8.30;49.70;;;;;;5090945;28;20086;-77
2022/02/21 12:31:34;;;;;;;10.82;2.08;;;7.80;52.80;;;;;;5075718;28;20070;-77
2022/02/21 12:34:04;;;;;;;14.00;2.88;;;7.70;51.90;;;;;;5074331;28;20024;-77
2022/02/21 12:36:39;;;;;;;8.95;2.05;;;7.60;52.70;;;;;;5075781;28;20151;-77
2022/02/21 12:39:09;;;;;;;9.52;1.65;;;7.20;53.50;;;;;;5091577;28;20135;-78
2022/02/21 12:41:44;;;;;;;10.43;2.50;;;7.30;52.60;;;;;;5074020;28;20024;-78
2022/02/21 12:44:11;;;;;;;7.07;1.75;;;7.10;54.60;;;;;;5074645;28;20093;-79
2022/02/21 12:46:43;;;;;;;8.05;2.40;;;6.90;55.80;;;;;;5074424;28;20551;-79
2022/02/21 12:49:26;;;;;;;10.63;1.70;;;6.90;55.90;;;;;;5074482;28;20020;-79
2022/02/21 12:51:58;;;;;;;8.57;1.60;;;6.60;55.20;;;;;;5074275;28;20426;-79
2022/02/21 12:54:24;;;;;;;11.82;2.20;;;6.30;56.00;;;;;;5074439;28;20017;-79
2022/02/21 12:56:58;;;;;;;10.98;1.95;;;6.10;57.90;;;;;;5057954;28;20062;-78